sensor_id;sensor_type;location;lat;lon;timestamp;pressure;altitude;pressure_sealevel;temperature;humidity
10008;BME280;5043;41.766;26.204;2023-04-05T00:01:15;100227.16;;;7.07;100.00
10008;BME280;5043;41.766;26.204;2023-04-05T00:03:44;100270.72;;;7.10;100.00
10008;BME280;5043;41.766;26.204;2023-04-05T00:06:09;100201.91;;;6.92;100.00
10008;BME280;5043;41.766;26.204;2023-04-05T00:08:37;100235.47;;;7.14;100.00
10008;BME280;5043;41.766;26.204;2023-04-05T00:11:02;100258.47;;;7.23;100.00
10008;BME280;5043;41.766;26.204;2023-04-05T00:13:28;100271.16;;;7.16;100.00
10008;BME280;5043;41.766;26.204;2023-04-05T00:15:54;100252.03;;;7.14;100.00
10008;BME280;5043;41.766;26.204;2023-04-05T00:18:22;100191.03;;;6.71;100.00
10008;BME280;5043;41.766;26.204;2023-04-05T00:20:52;100232.91;;;7.00;100.00
10008;BME280;5043;41.766;26.204;2023-04-05T00:23:17;100205.34;;;6.80;100.00
10008;BME280;5043;41.766;26.204;2023-04-05T00:25:44;100265.47;;;7.10;100.00
10008;BME280;5043;41.766;26.204;2023-04-05T00:28:11;100271.34;;;7.13;100.00
10008;BME280;5043;41.766;26.204;2023-04-05T00:30:36;100153.00;;;6.52;100.00
10008;BME280;5043;41.766;26.204;2023-04-05T00:33:02;100259.38;;;7.09;100.00
10008;BME280;5043;41.766;26.204;2023-04-05T00:35:27;100207.22;;;6.78;100.00
10008;BME280;5043;41.766;26.204;2023-04-05T00:37:54;100214.25;;;6.77;100.00
10008;BME280;5043;41.766;26.204;2023-04-05T00:40:19;100273.22;;;7.11;100.00
10008;BME280;5043;41.766;26.204;2023-04-05T00:42:45;100276.19;;;7.19;100.00
10008;BME280;5043;41.766;26.204;2023-04-05T00:45:12;100275.97;;;7.22;100.00
10008;BME280;5043;41.766;26.204;2023-04-05T00:47:42;100279.75;;;7.18;100.00
10008;BME280;5043;41.766;26.204;2023-04-05T00:50:09;100279.94;;;7.15;100.00
10008;BME280;5043;41.766;26.204;2023-04-05T00:52:36;100284.25;;;7.16;100.00
10008;BME280;5043;41.766;26.204;2023-04-05T00:55:06;100281.94;;;7.12;100.00
10008;BME280;5043;41.766;26.204;2023-04-05T00:57:34;100284.75;;;7.09;100.00
10008;BME280;5043;41.766;26.204;2023-04-05T01:00:00;100239.97;;;6.85;100.00
10008;BME280;5043;41.766;26.204;2023-04-05T01:02:33;100292.28;;;7.01;100.00
10008;BME280;5043;41.766;26.204;2023-04-05T01:05:09;100287.47;;;7.07;100.00
10008;BME280;5043;41.766;26.204;2023-04-05T01:07:39;100312.97;;;7.05;100.00
10008;BME280;5043;41.766;26.204;2023-04-05T01:10:09;100295.25;;;7.09;100.00
10008;BME280;5043;41.766;26.204;2023-04-05T01:12:37;100296.81;;;7.11;100.00
10008;BME280;5043;41.766;26.204;2023-04-05T01:15:04;100234.38;;;6.77;100.00
10008;BME280;5043;41.766;26.204;2023-04-05T01:17:30;100211.38;;;6.68;100.00
10008;BME280;5043;41.766;26.204;2023-04-05T01:20:03;100300.19;;;7.13;100.00
10008;BME280;5043;41.766;26.204;2023-04-05T01:34:07;100306.75;;;7.06;100.00
10008;BME280;5043;41.766;26.204;2023-04-05T01:36:44;100301.50;;;7.06;100.00
10008;BME280;5043;41.766;26.204;2023-04-05T01:39:14;100336.44;;;7.07;100.00
10008;BME280;5043;41.766;26.204;2023-04-05T01:41:41;100328.19;;;7.13;100.00
10008;BME280;5043;41.766;26.204;2023-04-05T01:44:07;100317.06;;;7.09;100.00
10008;BME280;5043;41.766;26.204;2023-04-05T01:46:32;100335.59;;;7.06;100.00
10008;BME280;5043;41.766;26.204;2023-04-05T01:48:58;100317.06;;;7.09;100.00
10008;BME280;5043;41.766;26.204;2023-04-05T01:51:24;100317.06;;;7.09;100.00
10008;BME280;5043;41.766;26.204;2023-04-05T01:53:50;100263.97;;;6.79;100.00
10008;BME280;5043;41.766;26.204;2023-04-05T01:56:15;100321.00;;;7.02;100.00
10008;BME280;5043;41.766;26.204;2023-04-05T01:58:41;100319.06;;;7.06;100.00
10008;BME280;5043;41.766;26.204;2023-04-05T02:01:06;100321.38;;;7.10;100.00
10008;BME280;5043;41.766;26.204;2023-04-05T02:03:32;100334.13;;;7.02;100.00
10008;BME280;5043;41.766;26.204;2023-04-05T02:05:57;100324.94;;;7.09;100.00
10008;BME280;5043;41.766;26.204;2023-04-05T02:08:23;100334.88;;;7.04;100.00
10008;BME280;5043;41.766;26.204;2023-04-05T02:10:48;100320.09;;;7.03;100.00
10008;BME280;5043;41.766;26.204;2023-04-05T02:13:14;100336.06;;;7.13;100.00
10008;BME280;5043;41.766;26.204;2023-04-05T02:15:39;100339.47;;;7.01;100.00
10008;BME280;5043;41.766;26.204;2023-04-05T02:18:05;100278.00;;;6.64;100.00
10008;BME280;5043;41.766;26.204;2023-04-05T02:20:32;100347.06;;;7.05;100.00
10008;BME280;5043;41.766;26.204;2023-04-05T02:22:58;100325.69;;;6.97;100.00
10008;BME280;5043;41.766;26.204;2023-04-05T02:25:24;100341.50;;;7.10;100.00
10008;BME280;5043;41.766;26.204;2023-04-05T02:27:50;100346.59;;;6.99;100.00
10008;BME280;5043;41.766;26.204;2023-04-05T02:30:16;100365.31;;;7.07;100.00
10008;BME280;5043;41.766;26.204;2023-04-05T02:32:42;100348.09;;;7.03;100.00
10008;BME280;5043;41.766;26.204;2023-04-05T02:35:09;100303.56;;;6.74;100.00
10008;BME280;5043;41.766;26.204;2023-04-05T02:37:35;100337.69;;;6.87;100.00
10008;BME280;5043;41.766;26.204;2023-04-05T02:40:01;100368.97;;;7.04;100.00
10008;BME280;5043;41.766;26.204;2023-04-05T02:42:29;100309.56;;;6.62;100.00
10008;BME280;5043;41.766;26.204;2023-04-05T02:44:55;100304.97;;;6.52;100.00
10008;BME280;5043;41.766;26.204;2023-04-05T02:47:21;100376.78;;;6.91;100.00
10008;BME280;5043;41.766;26.204;2023-04-05T02:49:47;100318.72;;;6.69;100.00
10008;BME280;5043;41.766;26.204;2023-04-05T02:52:13;100404.75;;;7.05;100.00
10008;BME280;5043;41.766;26.204;2023-04-05T02:54:39;100351.56;;;6.89;100.00
10008;BME280;5043;41.766;26.204;2023-04-05T02:57:04;100363.38;;;6.96;100.00
10008;BME280;5043;41.766;26.204;2023-04-05T02:59:30;100361.97;;;6.90;100.00
10008;BME280;5043;41.766;26.204;2023-04-05T03:01:56;100379.19;;;6.94;100.00
10008;BME280;5043;41.766;26.204;2023-04-05T03:04:22;100380.88;;;6.96;100.00
10008;BME280;5043;41.766;26.204;2023-04-05T03:06:50;100376.28;;;6.85;100.00
10008;BME280;5043;41.766;26.204;2023-04-05T03:09:19;100375.53;;;6.83;100.00
10008;BME280;5043;41.766;26.204;2023-04-05T03:11:45;100402.88;;;6.93;100.00
10008;BME280;5043;41.766;26.204;2023-04-05T03:14:10;100390.97;;;6.87;100.00
10008;BME280;5043;41.766;26.204;2023-04-05T03:16:36;100381.53;;;6.71;100.00
10008;BME280;5043;41.766;26.204;2023-04-05T03:19:03;100380.88;;;6.81;100.00
10008;BME280;5043;41.766;26.204;2023-04-05T03:21:32;100405.69;;;6.90;100.00
10008;BME280;5043;41.766;26.204;2023-04-05T03:23:58;100391.94;;;6.86;100.00
10008;BME280;5043;41.766;26.204;2023-04-05T03:26:24;100391.09;;;6.86;100.00
10008;BME280;5043;41.766;26.204;2023-04-05T03:28:50;100400.81;;;6.84;100.00
10008;BME280;5043;41.766;26.204;2023-04-05T03:31:15;100405.03;;;6.86;100.00
10008;BME280;5043;41.766;26.204;2023-04-05T03:33:41;100197.50;;;5.69;100.00
10008;BME280;5043;41.766;26.204;2023-04-05T03:36:08;100400.34;;;7.06;100.00
10008;BME280;5043;41.766;26.204;2023-04-05T03:38:33;100382.75;;;6.79;100.00
10008;BME280;5043;41.766;26.204;2023-04-05T03:41:01;100387.91;;;6.81;100.00
10008;BME280;5043;41.766;26.204;2023-04-05T03:43:26;100412.25;;;6.83;100.00
10008;BME280;5043;41.766;26.204;2023-04-05T03:45:53;100399.69;;;6.74;100.00
10008;BME280;5043;41.766;26.204;2023-04-05T03:48:19;100411.88;;;6.89;100.00
10008;BME280;5043;41.766;26.204;2023-04-05T03:50:46;100416.56;;;6.84;100.00
10008;BME280;5043;41.766;26.204;2023-04-05T03:53:11;100415.59;;;6.85;100.00
10008;BME280;5043;41.766;26.204;2023-04-05T03:55:37;100408.56;;;6.57;100.00
10008;BME280;5043;41.766;26.204;2023-04-05T03:58:04;100441.81;;;6.71;100.00
10008;BME280;5043;41.766;26.204;2023-04-05T04:00:29;100423.28;;;6.74;100.00
10008;BME280;5043;41.766;26.204;2023-04-05T04:02:55;100432.84;;;6.75;100.00
10008;BME280;5043;41.766;26.204;2023-04-05T04:05:20;100438.09;;;6.75;100.00
10008;BME280;5043;41.766;26.204;2023-04-05T04:07:46;100429.94;;;6.65;100.00
10008;BME280;5043;41.766;26.204;2023-04-05T04:10:14;100320.56;;;5.97;100.00
10008;BME280;5043;41.766;26.204;2023-04-05T04:12:42;100429.84;;;6.67;100.00
10008;BME280;5043;41.766;26.204;2023-04-05T04:15:07;100446.50;;;6.80;100.00
10008;BME280;5043;41.766;26.204;2023-04-05T04:17:34;100461.19;;;6.82;100.00
10008;BME280;5043;41.766;26.204;2023-04-05T04:20:02;100449.69;;;6.85;100.00
10008;BME280;5043;41.766;26.204;2023-04-05T04:22:35;100449.69;;;6.85;100.00
10008;BME280;5043;41.766;26.204;2023-04-05T04:25:04;100454.19;;;6.83;100.00
10008;BME280;5043;41.766;26.204;2023-04-05T04:27:30;100460.28;;;6.83;100.00
10008;BME280;5043;41.766;26.204;2023-04-05T04:29:56;100460.28;;;6.83;100.00
10008;BME280;5043;41.766;26.204;2023-04-05T04:32:28;100450.25;;;6.90;100.00
10008;BME280;5043;41.766;26.204;2023-04-05T04:35:15;100467.47;;;6.94;100.00
10008;BME280;5043;41.766;26.204;2023-04-05T04:37:46;100489.59;;;6.90;100.00
10008;BME280;5043;41.766;26.204;2023-04-05T04:40:14;100472.38;;;7.14;100.00
10008;BME280;5043;41.766;26.204;2023-04-05T04:42:42;100419.19;;;6.70;100.00
10008;BME280;5043;41.766;26.204;2023-04-05T04:45:14;100468.59;;;6.90;100.00
10008;BME280;5043;41.766;26.204;2023-04-05T04:47:47;100459.81;;;6.91;100.00
10008;BME280;5043;41.766;26.204;2023-04-05T04:50:13;100460.16;;;6.85;100.00
10008;BME280;5043;41.766;26.204;2023-04-05T04:52:40;100480.22;;;7.00;100.00
10008;BME280;5043;41.766;26.204;2023-04-05T04:55:08;100466.44;;;6.97;100.00
10008;BME280;5043;41.766;26.204;2023-04-05T04:57:34;100474.31;;;6.97;100.00
10008;BME280;5043;41.766;26.204;2023-04-05T04:59:59;100511.41;;;7.05;100.00
10008;BME280;5043;41.766;26.204;2023-04-05T05:02:26;100504.69;;;7.01;100.00
10008;BME280;5043;41.766;26.204;2023-04-05T05:04:52;100490.44;;;7.05;100.00
10008;BME280;5043;41.766;26.204;2023-04-05T05:07:18;100462.44;;;6.77;100.00
10008;BME280;5043;41.766;26.204;2023-04-05T05:09:44;100512.56;;;7.01;100.00
10008;BME280;5043;41.766;26.204;2023-04-05T05:12:10;100494.00;;;7.04;100.00
10008;BME280;5043;41.766;26.204;2023-04-05T05:14:35;100425.34;;;6.69;100.00
10008;BME280;5043;41.766;26.204;2023-04-05T05:17:01;100423.94;;;6.63;100.00
10008;BME280;5043;41.766;26.204;2023-04-05T05:19:26;100443.81;;;6.81;100.00
10008;BME280;5043;41.766;26.204;2023-04-05T05:21:53;100424.31;;;6.71;100.00
10008;BME280;5043;41.766;26.204;2023-04-05T05:24:19;100510.97;;;7.40;100.00
10008;BME280;5043;41.766;26.204;2023-04-05T05:26:44;100532.41;;;7.33;100.00
10008;BME280;5043;41.766;26.204;2023-04-05T05:29:10;100501.38;;;7.39;100.00
10008;BME280;5043;41.766;26.204;2023-04-05T05:31:35;100537.38;;;7.51;100.00
10008;BME280;5043;41.766;26.204;2023-04-05T05:34:10;100540.63;;;7.55;100.00
10008;BME280;5043;41.766;26.204;2023-04-05T05:36:36;100469.28;;;7.22;100.00
10008;BME280;5043;41.766;26.204;2023-04-05T05:39:02;100531.66;;;7.45;100.00
10008;BME280;5043;41.766;26.204;2023-04-05T05:41:30;100522.00;;;7.59;100.00
10008;BME280;5043;41.766;26.204;2023-04-05T05:43:55;100549.16;;;7.73;100.00
10008;BME280;5043;41.766;26.204;2023-04-05T05:46:20;100519.91;;;7.64;100.00
10008;BME280;5043;41.766;26.204;2023-04-05T05:48:46;100520.88;;;7.63;100.00
10008;BME280;5043;41.766;26.204;2023-04-05T05:51:12;100480.56;;;7.50;100.00
10008;BME280;5043;41.766;26.204;2023-04-05T05:53:38;100532.97;;;7.93;100.00
10008;BME280;5043;41.766;26.204;2023-04-05T05:56:05;100521.84;;;7.89;100.00
10008;BME280;5043;41.766;26.204;2023-04-05T05:58:31;100520.06;;;7.90;100.00
10008;BME280;5043;41.766;26.204;2023-04-05T06:00:57;100556.84;;;7.90;100.00
10008;BME280;5043;41.766;26.204;2023-04-05T06:03:24;100526.13;;;7.90;100.00
10008;BME280;5043;41.766;26.204;2023-04-05T06:05:54;100532.94;;;8.07;100.00
10008;BME280;5043;41.766;26.204;2023-04-05T06:08:20;100536.31;;;8.09;100.00
10008;BME280;5043;41.766;26.204;2023-04-05T06:10:47;100542.09;;;7.87;100.00
10008;BME280;5043;41.766;26.204;2023-04-05T06:13:12;100542.84;;;7.89;100.00
10008;BME280;5043;41.766;26.204;2023-04-05T06:15:38;100548.56;;;7.96;100.00
10008;BME280;5043;41.766;26.204;2023-04-05T06:18:03;100538.81;;;7.84;100.00
10008;BME280;5043;41.766;26.204;2023-04-05T06:20:29;100563.38;;;7.97;100.00
10008;BME280;5043;41.766;26.204;2023-04-05T06:22:55;100544.47;;;8.04;100.00
10008;BME280;5043;41.766;26.204;2023-04-05T06:25:20;100565.00;;;8.12;100.00
10008;BME280;5043;41.766;26.204;2023-04-05T06:27:46;100550.09;;;8.12;99.93
10008;BME280;5043;41.766;26.204;2023-04-05T06:30:11;100561.22;;;8.03;98.55
10008;BME280;5043;41.766;26.204;2023-04-05T06:32:37;100496.78;;;7.57;99.08
10008;BME280;5043;41.766;26.204;2023-04-05T06:35:03;100570.13;;;8.01;98.94
10008;BME280;5043;41.766;26.204;2023-04-05T06:37:29;100555.84;;;8.05;99.38
10008;BME280;5043;41.766;26.204;2023-04-05T06:39:55;100616.78;;;8.24;99.41
10008;BME280;5043;41.766;26.204;2023-04-05T06:42:20;100575.91;;;8.47;99.38
10008;BME280;5043;41.766;26.204;2023-04-05T06:44:46;100578.91;;;8.55;98.15
10008;BME280;5043;41.766;26.204;2023-04-05T06:47:13;100579.94;;;8.52;97.84
10008;BME280;5043;41.766;26.204;2023-04-05T06:49:40;100591.53;;;8.62;97.18
10008;BME280;5043;41.766;26.204;2023-04-05T06:52:06;100572.25;;;8.49;96.40
10008;BME280;5043;41.766;26.204;2023-04-05T06:54:32;100587.03;;;8.64;97.27
10008;BME280;5043;41.766;26.204;2023-04-05T06:56:57;100575.69;;;8.76;96.81
10008;BME280;5043;41.766;26.204;2023-04-05T06:59:23;100586.47;;;8.98;97.55
10008;BME280;5043;41.766;26.204;2023-04-05T07:01:49;100587.22;;;9.13;98.38
10008;BME280;5043;41.766;26.204;2023-04-05T07:04:15;100591.94;;;9.33;96.00
10008;BME280;5043;41.766;26.204;2023-04-05T07:06:40;100591.53;;;9.27;94.33
10008;BME280;5043;41.766;26.204;2023-04-05T07:09:05;100589.00;;;9.38;94.28
10008;BME280;5043;41.766;26.204;2023-04-05T07:11:32;100560.06;;;9.13;92.73
10008;BME280;5043;41.766;26.204;2023-04-05T07:13:59;100622.81;;;9.44;92.88
10008;BME280;5043;41.766;26.204;2023-04-05T07:16:24;100540.06;;;9.23;93.94
10008;BME280;5043;41.766;26.204;2023-04-05T07:18:50;100613.75;;;9.48;90.19
10008;BME280;5043;41.766;26.204;2023-04-05T07:21:16;100609.25;;;9.62;92.01
10008;BME280;5043;41.766;26.204;2023-04-05T07:23:41;100610.09;;;9.63;91.56
10008;BME280;5043;41.766;26.204;2023-04-05T07:26:07;100617.75;;;9.66;89.26
10008;BME280;5043;41.766;26.204;2023-04-05T07:28:33;100614.72;;;9.72;89.65
10008;BME280;5043;41.766;26.204;2023-04-05T07:31:04;100612.16;;;9.96;91.74
10008;BME280;5043;41.766;26.204;2023-04-05T07:33:30;100614.44;;;10.13;89.99
10008;BME280;5043;41.766;26.204;2023-04-05T07:35:55;100635.38;;;10.27;86.90
10008;BME280;5043;41.766;26.204;2023-04-05T07:38:21;100622.69;;;10.45;87.91
10008;BME280;5043;41.766;26.204;2023-04-05T07:40:50;100626.91;;;10.71;86.86
10008;BME280;5043;41.766;26.204;2023-04-05T07:43:17;100610.91;;;10.96;84.12
10008;BME280;5043;41.766;26.204;2023-04-05T07:45:44;100630.56;;;11.27;81.73
10008;BME280;5043;41.766;26.204;2023-04-05T07:48:09;100622.66;;;11.38;80.43
10008;BME280;5043;41.766;26.204;2023-04-05T07:50:35;100618.94;;;11.29;80.82
10008;BME280;5043;41.766;26.204;2023-04-05T07:53:03;100591.31;;;11.22;80.36
10008;BME280;5043;41.766;26.204;2023-04-05T07:55:29;100632.66;;;11.45;79.95
10008;BME280;5043;41.766;26.204;2023-04-05T07:57:54;100628.84;;;11.60;78.64
10008;BME280;5043;41.766;26.204;2023-04-05T08:00:20;100645.22;;;11.77;77.33
10008;BME280;5043;41.766;26.204;2023-04-05T08:02:46;100597.38;;;12.02;77.51
10008;BME280;5043;41.766;26.204;2023-04-05T08:05:11;100648.06;;;12.40;75.36
10008;BME280;5043;41.766;26.204;2023-04-05T08:07:37;100679.00;;;12.06;77.75
10008;BME280;5043;41.766;26.204;2023-04-05T08:10:03;100662.38;;;11.82;76.98
10008;BME280;5043;41.766;26.204;2023-04-05T08:12:30;100650.34;;;11.67;77.34
10008;BME280;5043;41.766;26.204;2023-04-05T08:14:56;100640.22;;;11.50;77.13
10008;BME280;5043;41.766;26.204;2023-04-05T08:17:22;100645.72;;;11.47;80.60
10008;BME280;5043;41.766;26.204;2023-04-05T08:19:51;100648.03;;;11.51;79.22
10008;BME280;5043;41.766;26.204;2023-04-05T08:22:18;100640.34;;;11.48;79.70
10008;BME280;5043;41.766;26.204;2023-04-05T08:24:44;100646.34;;;11.39;77.96
10008;BME280;5043;41.766;26.204;2023-04-05T08:27:10;100648.28;;;11.48;77.92
10008;BME280;5043;41.766;26.204;2023-04-05T08:29:36;100644.94;;;11.57;76.80
10008;BME280;5043;41.766;26.204;2023-04-05T08:32:03;100538.94;;;10.94;77.24
10008;BME280;5043;41.766;26.204;2023-04-05T08:34:29;100648.72;;;11.31;78.16
10008;BME280;5043;41.766;26.204;2023-04-05T08:36:58;100594.88;;;10.99;76.57
10008;BME280;5043;41.766;26.204;2023-04-05T08:39:24;100640.69;;;10.98;78.10
10008;BME280;5043;41.766;26.204;2023-04-05T08:41:59;100654.59;;;11.35;77.11
10008;BME280;5043;41.766;26.204;2023-04-05T08:44:29;100658.53;;;11.75;76.14
10008;BME280;5043;41.766;26.204;2023-04-05T08:46:59;100639.50;;;11.48;75.67
10008;BME280;5043;41.766;26.204;2023-04-05T08:49:26;100646.44;;;11.84;75.38
10008;BME280;5043;41.766;26.204;2023-04-05T08:51:52;100667.44;;;11.96;73.35
10008;BME280;5043;41.766;26.204;2023-04-05T08:54:17;100666.63;;;12.07;72.86
10008;BME280;5043;41.766;26.204;2023-04-05T08:56:45;100664.91;;;12.17;70.71
10008;BME280;5043;41.766;26.204;2023-04-05T09:02:35;100669.72;;;12.01;73.46
10008;BME280;5043;41.766;26.204;2023-04-05T09:05:03;100668.94;;;11.65;77.81
10008;BME280;5043;41.766;26.204;2023-04-05T09:07:34;100670.50;;;11.57;78.83
10008;BME280;5043;41.766;26.204;2023-04-05T09:10:06;100694.22;;;11.69;79.94
10008;BME280;5043;41.766;26.204;2023-04-05T09:12:34;100686.53;;;11.89;76.91
10008;BME280;5043;41.766;26.204;2023-04-05T09:15:00;100690.97;;;11.31;75.94
10008;BME280;5043;41.766;26.204;2023-04-05T09:17:27;100670.50;;;11.46;79.39
10008;BME280;5043;41.766;26.204;2023-04-05T09:19:53;100697.97;;;11.78;78.29
10008;BME280;5043;41.766;26.204;2023-04-05T09:22:21;100665.88;;;11.71;77.34
10008;BME280;5043;41.766;26.204;2023-04-05T09:24:47;100638.25;;;11.76;76.11
10008;BME280;5043;41.766;26.204;2023-04-05T09:27:14;100675.47;;;12.39;73.23
10008;BME280;5043;41.766;26.204;2023-04-05T09:29:45;100510.53;;;11.53;72.81
10008;BME280;5043;41.766;26.204;2023-04-05T09:32:13;100680.75;;;12.61;71.96
10008;BME280;5043;41.766;26.204;2023-04-05T09:34:40;100677.88;;;12.53;70.40
10008;BME280;5043;41.766;26.204;2023-04-05T09:37:19;100630.28;;;12.42;67.91
10008;BME280;5043;41.766;26.204;2023-04-05T09:39:46;100574.78;;;12.09;71.08
10008;BME280;5043;41.766;26.204;2023-04-05T09:42:15;100678.25;;;12.91;70.05
10008;BME280;5043;41.766;26.204;2023-04-05T09:44:48;100672.34;;;12.56;70.26
10008;BME280;5043;41.766;26.204;2023-04-05T09:47:15;100690.34;;;12.62;70.57
10008;BME280;5043;41.766;26.204;2023-04-05T09:49:41;100669.16;;;12.73;70.05
10008;BME280;5043;41.766;26.204;2023-04-05T09:52:20;100685.31;;;13.02;69.54
10008;BME280;5043;41.766;26.204;2023-04-05T09:54:46;100674.53;;;12.83;68.45
10008;BME280;5043;41.766;26.204;2023-04-05T09:57:12;100672.06;;;12.59;72.16
10008;BME280;5043;41.766;26.204;2023-04-05T09:59:40;100675.41;;;12.72;71.13
10008;BME280;5043;41.766;26.204;2023-04-05T10:02:06;100670.47;;;12.79;71.10
10008;BME280;5043;41.766;26.204;2023-04-05T10:04:43;100673.56;;;12.30;72.08
10008;BME280;5043;41.766;26.204;2023-04-05T10:07:11;100669.22;;;12.51;76.06
10008;BME280;5043;41.766;26.204;2023-04-05T10:09:41;100695.41;;;12.65;76.12
10008;BME280;5043;41.766;26.204;2023-04-05T10:12:08;100679.75;;;12.62;77.09
10008;BME280;5043;41.766;26.204;2023-04-05T10:14:35;100560.03;;;11.73;76.07
10008;BME280;5043;41.766;26.204;2023-04-05T10:22:19;100614.88;;;11.58;79.39
10008;BME280;5043;41.766;26.204;2023-04-05T10:24:58;100664.53;;;11.77;79.98
10008;BME280;5043;41.766;26.204;2023-04-05T10:28:03;100680.19;;;11.45;81.22
10008;BME280;5043;41.766;26.204;2023-04-05T10:30:36;100674.97;;;11.22;84.33
10008;BME280;5043;41.766;26.204;2023-04-05T10:38:23;100675.59;;;11.25;86.08
10008;BME280;5043;41.766;26.204;2023-04-05T10:40:55;100669.63;;;11.34;87.14
10008;BME280;5043;41.766;26.204;2023-04-05T10:43:24;100610.53;;;10.89;85.37
10008;BME280;5043;41.766;26.204;2023-04-05T10:45:52;100696.97;;;10.98;84.54
10008;BME280;5043;41.766;26.204;2023-04-05T10:48:47;100673.97;;;11.12;86.39
10008;BME280;5043;41.766;26.204;2023-04-05T10:51:15;100681.81;;;11.24;85.54
10008;BME280;5043;41.766;26.204;2023-04-05T10:53:40;100678.41;;;11.46;85.07
10008;BME280;5043;41.766;26.204;2023-04-05T10:56:07;100666.59;;;11.73;84.10
10008;BME280;5043;41.766;26.204;2023-04-05T10:58:34;100709.78;;;12.18;82.66
10008;BME280;5043;41.766;26.204;2023-04-05T11:01:00;100678.59;;;12.44;82.15
10008;BME280;5043;41.766;26.204;2023-04-05T11:03:49;100682.53;;;12.50;81.60
10008;BME280;5043;41.766;26.204;2023-04-05T11:06:31;100681.41;;;12.20;83.87
10008;BME280;5043;41.766;26.204;2023-04-05T11:11:38;100685.31;;;12.48;79.44
10008;BME280;5043;41.766;26.204;2023-04-05T11:14:36;100674.88;;;11.91;77.83
10008;BME280;5043;41.766;26.204;2023-04-05T11:17:02;100678.59;;;11.89;77.15
10008;BME280;5043;41.766;26.204;2023-04-05T11:19:47;100641.72;;;11.30;79.34
10008;BME280;5043;41.766;26.204;2023-04-05T11:22:23;100669.50;;;11.47;79.84
10008;BME280;5043;41.766;26.204;2023-04-05T11:24:49;100619.81;;;11.52;82.45
10008;BME280;5043;41.766;26.204;2023-04-05T11:27:24;100676.09;;;11.76;82.73
10008;BME280;5043;41.766;26.204;2023-04-05T11:29:50;100616.44;;;11.50;82.01
10008;BME280;5043;41.766;26.204;2023-04-05T11:32:16;100620.66;;;11.52;80.90
10008;BME280;5043;41.766;26.204;2023-04-05T11:34:43;100677.31;;;11.83;81.24
10008;BME280;5043;41.766;26.204;2023-04-05T11:37:09;100681.16;;;12.01;81.30
10008;BME280;5043;41.766;26.204;2023-04-05T11:39:35;100677.53;;;11.91;79.43
10008;BME280;5043;41.766;26.204;2023-04-05T11:42:04;100688.97;;;12.14;78.79
10008;BME280;5043;41.766;26.204;2023-04-05T11:44:44;100682.34;;;12.19;79.46
10008;BME280;5043;41.766;26.204;2023-04-05T11:47:10;100638.78;;;11.46;81.29
10008;BME280;5043;41.766;26.204;2023-04-05T11:49:37;100611.50;;;10.99;83.60
10008;BME280;5043;41.766;26.204;2023-04-05T11:52:14;100666.13;;;11.34;82.85
10008;BME280;5043;41.766;26.204;2023-04-05T11:54:40;100671.75;;;11.29;87.00
10008;BME280;5043;41.766;26.204;2023-04-05T11:57:18;100671.31;;;11.12;86.22
10008;BME280;5043;41.766;26.204;2023-04-05T11:59:43;100595.81;;;10.63;86.48
10008;BME280;5043;41.766;26.204;2023-04-05T12:02:09;100681.13;;;10.98;87.02
10008;BME280;5043;41.766;26.204;2023-04-05T12:04:36;100675.53;;;10.67;87.42
10008;BME280;5043;41.766;26.204;2023-04-05T12:07:16;100554.63;;;10.26;88.71
10008;BME280;5043;41.766;26.204;2023-04-05T12:10:05;100688.28;;;10.85;90.31
10008;BME280;5043;41.766;26.204;2023-04-05T12:12:49;100675.16;;;10.60;91.47
10008;BME280;5043;41.766;26.204;2023-04-05T12:15:16;100668.84;;;10.26;92.55
10008;BME280;5043;41.766;26.204;2023-04-05T12:17:47;100680.13;;;10.16;94.98
10008;BME280;5043;41.766;26.204;2023-04-05T12:20:20;100672.44;;;10.00;95.84
10008;BME280;5043;41.766;26.204;2023-04-05T12:22:47;100595.88;;;9.65;98.97
10008;BME280;5043;41.766;26.204;2023-04-05T12:25:14;100671.13;;;10.06;100.00
10008;BME280;5043;41.766;26.204;2023-04-05T12:27:40;100669.69;;;10.14;100.00
10008;BME280;5043;41.766;26.204;2023-04-05T12:30:06;100674.13;;;10.14;98.98
10008;BME280;5043;41.766;26.204;2023-04-05T12:32:39;100674.53;;;9.95;98.75
10008;BME280;5043;41.766;26.204;2023-04-05T12:35:09;100667.56;;;9.94;99.94
10008;BME280;5043;41.766;26.204;2023-04-05T12:37:35;100597.34;;;9.44;99.27
10008;BME280;5043;41.766;26.204;2023-04-05T12:40:04;100607.31;;;9.52;99.12
10008;BME280;5043;41.766;26.204;2023-04-05T12:42:34;100702.16;;;10.02;97.84
10008;BME280;5043;41.766;26.204;2023-04-05T12:45:04;100688.66;;;9.94;98.79
10008;BME280;5043;41.766;26.204;2023-04-05T12:47:34;100669.25;;;10.20;100.00
10008;BME280;5043;41.766;26.204;2023-04-05T12:50:12;100657.09;;;10.43;96.47
10008;BME280;5043;41.766;26.204;2023-04-05T12:52:38;100676.38;;;10.44;94.88
10008;BME280;5043;41.766;26.204;2023-04-05T12:55:13;100676.31;;;10.32;95.60
10008;BME280;5043;41.766;26.204;2023-04-05T12:57:39;100617.09;;;10.36;96.19
10008;BME280;5043;41.766;26.204;2023-04-05T13:00:05;100633.44;;;10.42;94.54
10008;BME280;5043;41.766;26.204;2023-04-05T13:02:30;100674.59;;;10.68;93.79
10008;BME280;5043;41.766;26.204;2023-04-05T13:04:56;100699.44;;;10.89;93.35
10008;BME280;5043;41.766;26.204;2023-04-05T13:07:21;100679.34;;;10.99;93.58
10008;BME280;5043;41.766;26.204;2023-04-05T13:09:47;100672.47;;;10.96;92.58
10008;BME280;5043;41.766;26.204;2023-04-05T13:12:12;100681.97;;;10.99;93.79
10008;BME280;5043;41.766;26.204;2023-04-05T13:14:38;100604.72;;;10.73;91.56
10008;BME280;5043;41.766;26.204;2023-04-05T13:17:03;100692.72;;;11.20;91.46
10008;BME280;5043;41.766;26.204;2023-04-05T13:19:29;100663.72;;;10.96;92.00
10008;BME280;5043;41.766;26.204;2023-04-05T13:21:54;100702.66;;;11.16;91.19